createdAt,value
2023-02-11T00:03:45.740Z,1.56
2023-02-11T00:08:48.784Z,1.59
2023-02-11T00:13:51.971Z,1.56
2023-02-11T00:18:55.063Z,1.58
2023-02-11T00:23:59.865Z,1.59
2023-02-11T00:29:03.220Z,1.58
2023-02-11T00:34:06.134Z,1.59
2023-02-11T00:39:10.126Z,1.59
2023-02-11T00:44:13.044Z,1.59
2023-02-11T00:49:16.074Z,1.63
2023-02-11T00:54:19.034Z,1.62
2023-02-11T00:59:21.919Z,1.60
2023-02-11T01:04:24.819Z,1.60
2023-02-11T01:09:27.875Z,1.59
2023-02-11T01:14:30.757Z,1.51
2023-02-11T01:19:33.802Z,1.50
2023-02-11T01:24:36.778Z,1.50
2023-02-11T01:29:39.718Z,1.46
2023-02-11T01:34:42.763Z,1.46
2023-02-11T01:39:45.728Z,1.46
2023-02-11T01:44:52.977Z,1.47
2023-02-11T01:49:59.256Z,1.44
2023-02-11T01:55:30.832Z,1.46
2023-02-11T02:00:36.800Z,1.45
2023-02-11T02:06:07.626Z,1.47
2023-02-11T02:11:10.758Z,1.50
2023-02-11T02:16:16.386Z,1.52
2023-02-11T02:21:38.349Z,1.56
2023-02-11T02:27:39.506Z,1.57
2023-02-11T02:33:16.714Z,1.56
2023-02-11T02:39:04.347Z,1.56
2023-02-11T02:44:07.860Z,1.58
2023-02-11T02:49:14.510Z,1.59
2023-02-11T02:54:36.014Z,1.62
2023-02-11T03:00:07.803Z,1.59
2023-02-11T03:05:37.338Z,1.61
2023-02-11T03:10:49.750Z,1.61
2023-02-11T03:15:55.278Z,1.61
2023-02-11T03:20:58.719Z,1.62
2023-02-11T03:26:30.818Z,1.63
2023-02-11T03:32:07.729Z,1.63
2023-02-11T03:37:16.575Z,1.64
2023-02-11T03:42:19.982Z,1.66
2023-02-11T03:47:24.955Z,1.67
2023-02-11T03:52:28.051Z,1.68
2023-02-11T03:57:31.277Z,1.64
2023-02-11T04:02:35.981Z,1.62
2023-02-11T04:07:38.945Z,1.63
2023-02-11T04:13:01.842Z,1.67
2023-02-11T04:18:04.884Z,1.63
2023-02-11T04:23:08.011Z,1.63
2023-02-11T04:28:10.919Z,1.61
2023-02-11T04:33:13.832Z,1.56
2023-02-11T04:38:16.940Z,1.55
2023-02-11T04:43:19.799Z,1.55
2023-02-11T04:48:22.788Z,1.52
2023-02-11T04:53:25.815Z,1.46
2023-02-11T04:58:28.798Z,1.44
2023-02-11T05:03:31.732Z,1.44
2023-02-11T05:08:34.701Z,1.43
2023-02-11T05:13:37.667Z,1.41
2023-02-11T05:18:41.935Z,1.41
2023-02-11T05:23:45.361Z,1.45
2023-02-11T05:28:48.338Z,1.46
2023-02-11T05:33:51.220Z,1.48
2023-02-11T05:38:54.464Z,1.44
2023-02-11T05:43:57.378Z,1.46
2023-02-11T05:49:00.257Z,1.50
2023-02-11T05:54:03.839Z,1.54
2023-02-11T05:59:06.838Z,1.61
2023-02-11T06:04:09.702Z,1.60
2023-02-11T06:09:12.663Z,1.59
2023-02-11T06:14:15.611Z,1.67
2023-02-11T06:19:20.091Z,1.70
2023-02-11T06:24:47.788Z,1.74
2023-02-11T06:29:48.209Z,1.83
2023-02-11T06:34:51.120Z,1.84
2023-02-11T06:39:53.977Z,1.86
2023-02-11T06:44:56.861Z,1.89
2023-02-11T06:49:59.786Z,1.87
2023-02-11T06:55:02.736Z,1.92
2023-02-11T07:00:06.434Z,2.03
2023-02-11T07:05:09.669Z,2.10
2023-02-11T07:10:12.722Z,2.19
2023-02-11T07:15:15.885Z,2.20
2023-02-11T07:20:19.016Z,2.14
2023-02-11T07:25:21.892Z,2.11
2023-02-11T07:30:24.759Z,2.05
2023-02-11T07:35:27.801Z,2.01
2023-02-11T07:40:31.759Z,2.02
2023-02-11T07:45:34.626Z,1.96
2023-02-11T07:50:37.470Z,1.87
2023-02-11T07:55:40.506Z,1.82
2023-02-11T08:00:43.675Z,1.77
2023-02-11T08:05:46.574Z,1.65
2023-02-11T08:10:49.655Z,1.64
2023-02-11T08:15:53.041Z,1.66
2023-02-11T08:20:56.175Z,1.60
2023-02-11T08:26:04.531Z,1.58
2023-02-11T08:31:40.673Z,1.53
2023-02-11T08:36:45.072Z,1.46
2023-02-11T08:41:50.083Z,1.35
2023-02-11T08:46:53.173Z,1.26
2023-02-11T08:51:56.573Z,1.25
2023-02-11T08:57:00.796Z,1.25
2023-02-11T09:02:03.765Z,1.25
2023-02-11T09:07:08.762Z,1.35
2023-02-11T09:12:11.610Z,1.42
2023-02-11T09:17:14.569Z,1.42
2023-02-11T09:22:17.462Z,1.48
2023-02-11T09:27:20.321Z,1.55
2023-02-11T09:32:23.316Z,1.61
2023-02-11T09:37:26.239Z,1.70
2023-02-11T09:42:38.607Z,1.77
2023-02-11T09:48:12.320Z,1.83
2023-02-11T09:53:27.883Z,1.87
2023-02-11T09:58:35.713Z,1.94
2023-02-11T10:03:47.624Z,1.91
2023-02-11T10:09:09.733Z,1.83
2023-02-11T10:15:03.899Z,1.85
2023-02-11T10:21:09.712Z,1.88
2023-02-11T10:26:15.557Z,1.88
2023-02-11T10:31:38.582Z,1.91
2023-02-11T10:36:44.616Z,1.90
2023-02-11T10:42:10.943Z,1.91
2023-02-11T10:47:20.540Z,1.92
2023-02-11T10:52:28.370Z,1.89
2023-02-11T10:57:42.814Z,1.90
2023-02-11T11:02:47.147Z,1.92
2023-02-11T11:07:59.156Z,1.94
2023-02-11T11:13:02.140Z,1.95
2023-02-11T11:18:22.409Z,2.02
2023-02-11T11:23:26.083Z,2.06
2023-02-11T11:28:29.932Z,2.13
2023-02-11T11:33:34.446Z,2.17
2023-02-11T11:38:44.450Z,2.25
2023-02-11T11:43:58.149Z,2.24
2023-02-11T11:49:29.338Z,2.25
2023-02-11T11:54:32.667Z,2.26
2023-02-11T11:59:37.204Z,2.27
2023-02-11T12:04:54.192Z,2.29
2023-02-11T12:10:34.488Z,2.33
2023-02-11T12:16:13.941Z,2.38
2023-02-11T12:21:55.205Z,2.43
2023-02-11T12:28:08.165Z,2.50
2023-02-11T12:34:07.775Z,2.56
2023-02-11T12:39:41.627Z,2.64
2023-02-11T12:44:50.295Z,2.69
2023-02-11T12:50:16.178Z,2.72
2023-02-11T12:55:27.185Z,2.73
2023-02-11T13:00:51.181Z,2.79
2023-02-11T13:05:58.171Z,2.89
2023-02-11T13:11:08.479Z,2.94
2023-02-11T13:16:50.944Z,3.02
2023-02-11T13:22:33.853Z,3.10
2023-02-11T13:27:44.690Z,3.17
2023-02-11T13:33:19.362Z,3.25
2023-02-11T13:38:24.791Z,3.28
2023-02-11T13:43:28.928Z,3.33
2023-02-11T13:48:59.638Z,3.34
2023-02-11T13:54:02.537Z,3.34
2023-02-11T13:59:25.740Z,3.25
2023-02-11T14:04:49.070Z,3.23
2023-02-11T14:09:57.071Z,3.21
2023-02-11T14:15:07.829Z,3.21
2023-02-11T14:20:42.045Z,3.19
2023-02-11T14:25:45.088Z,3.19
2023-02-11T14:31:04.573Z,3.20
2023-02-11T14:36:14.021Z,3.24
2023-02-11T14:41:29.887Z,3.25
2023-02-11T14:46:33.238Z,3.28
2023-02-11T14:51:41.900Z,3.35
2023-02-11T14:56:46.912Z,3.37
2023-02-11T15:01:51.365Z,3.37
2023-02-11T15:06:54.377Z,3.40
2023-02-11T15:11:57.385Z,3.47
2023-02-11T15:17:03.749Z,3.40
2023-02-11T15:22:30.341Z,3.37
2023-02-11T15:27:49.045Z,3.37
2023-02-11T15:32:59.778Z,3.34
2023-02-11T15:38:02.791Z,3.37
2023-02-11T15:43:11.276Z,3.37
2023-02-11T15:48:20.484Z,3.38
2023-02-11T15:53:32.549Z,3.38
2023-02-11T15:58:39.676Z,3.44
2023-02-11T16:03:42.730Z,3.42
2023-02-11T16:09:00.336Z,3.43
2023-02-11T16:14:23.275Z,3.44
2023-02-11T16:19:27.865Z,3.44
2023-02-11T16:24:35.179Z,3.47
2023-02-11T16:29:38.213Z,3.53
2023-02-11T16:34:41.258Z,3.53
2023-02-11T16:39:44.438Z,3.54
2023-02-11T16:44:47.284Z,3.57
2023-02-11T16:49:50.317Z,3.57
2023-02-11T16:54:53.857Z,3.61
2023-02-11T16:59:57.535Z,3.62
2023-02-11T17:05:02.539Z,3.63
2023-02-11T17:10:21.819Z,3.64
2023-02-11T17:15:25.033Z,3.66
2023-02-11T17:20:28.550Z,3.67
2023-02-11T17:25:31.607Z,3.68
2023-02-11T17:30:34.677Z,3.68
2023-02-11T17:35:40.655Z,3.69
2023-02-11T17:40:43.569Z,3.73
2023-02-11T17:45:46.562Z,3.75
2023-02-11T17:50:49.497Z,3.79
2023-02-11T17:55:52.721Z,3.80
2023-02-11T18:00:58.988Z,3.83
2023-02-11T18:06:04.313Z,3.88
2023-02-11T18:11:10.519Z,3.90
2023-02-11T18:16:15.994Z,3.91
2023-02-11T18:21:20.483Z,3.94
2023-02-11T18:26:26.269Z,3.95
2023-02-11T18:31:29.470Z,3.95
2023-02-11T18:36:32.400Z,3.97
2023-02-11T18:41:35.318Z,3.97
2023-02-11T18:46:38.161Z,3.99
2023-02-11T18:51:41.078Z,4.04
2023-02-11T18:56:44.038Z,4.07
2023-02-11T19:01:47.094Z,4.09
2023-02-11T19:06:50.347Z,4.09
2023-02-11T19:11:57.989Z,4.07
2023-02-11T19:17:04.054Z,4.13
2023-02-11T19:22:10.068Z,4.18
2023-02-11T19:27:13.537Z,4.22
2023-02-11T19:32:17.594Z,4.29
2023-02-11T19:37:20.554Z,4.37
2023-02-11T19:42:25.316Z,4.45
2023-02-11T19:47:31.372Z,4.52
2023-02-11T19:52:37.020Z,4.54
2023-02-11T19:57:39.965Z,4.55
2023-02-11T20:02:43.031Z,4.55
2023-02-11T20:07:45.995Z,4.58
2023-02-11T20:12:49.086Z,4.58
2023-02-11T20:17:51.963Z,4.59
2023-02-11T20:22:54.870Z,4.58
2023-02-11T20:27:57.908Z,4.58
2023-02-11T20:33:00.749Z,4.57
2023-02-11T20:38:04.242Z,4.54
2023-02-11T20:43:07.148Z,4.54
2023-02-11T20:48:10.110Z,4.53
2023-02-11T20:53:13.254Z,4.54
2023-02-11T20:58:16.164Z,4.56
2023-02-11T21:03:19.019Z,4.55
2023-02-11T21:08:21.848Z,4.52
2023-02-11T21:13:25.209Z,4.52
2023-02-11T21:18:28.209Z,4.48
2023-02-11T21:23:31.147Z,4.49
2023-02-11T21:28:34.432Z,4.40
2023-02-11T21:33:38.009Z,4.24
2023-02-11T21:38:41.465Z,4.13
2023-02-11T21:43:44.809Z,4.02
2023-02-11T21:48:48.068Z,3.95
2023-02-11T21:54:01.559Z,3.86
2023-02-11T21:59:04.613Z,3.74
2023-02-11T22:04:07.535Z,3.65
2023-02-11T22:09:11.132Z,3.55
2023-02-11T22:14:14.004Z,3.51
2023-02-11T22:19:17.362Z,3.41
2023-02-11T22:24:20.284Z,3.39
2023-02-11T22:29:23.147Z,3.33
2023-02-11T22:34:26.082Z,3.25
2023-02-11T22:39:31.588Z,3.23
2023-02-11T22:44:34.722Z,3.16
2023-02-11T22:49:39.640Z,2.99
2023-02-11T22:54:42.720Z,2.86
2023-02-11T22:59:48.046Z,2.73
2023-02-11T23:04:50.971Z,2.62
2023-02-11T23:09:54.251Z,2.48
2023-02-11T23:14:57.225Z,2.37
2023-02-11T23:20:00.442Z,2.28
2023-02-11T23:25:03.363Z,2.14
2023-02-11T23:30:07.600Z,2.03
2023-02-11T23:35:10.617Z,1.91
2023-02-11T23:40:14.472Z,1.80
2023-02-11T23:45:17.578Z,1.71
2023-02-11T23:50:21.304Z,1.63
2023-02-11T23:55:24.225Z,1.57
